createdAt,value
2022-08-11T00:00:43.768Z,52.64
2022-08-11T00:01:43.761Z,52.64
2022-08-11T00:02:43.850Z,52.64
2022-08-11T00:03:44.029Z,52.74
2022-08-11T00:04:43.717Z,52.74
2022-08-11T00:05:43.710Z,52.54
2022-08-11T00:06:43.693Z,52.54
2022-08-11T00:07:43.686Z,52.66
2022-08-11T00:08:43.667Z,52.77
2022-08-11T00:09:43.660Z,52.77
2022-08-11T00:10:43.639Z,52.77
2022-08-11T00:11:43.626Z,52.77
2022-08-11T00:12:43.629Z,52.77
2022-08-11T00:13:43.607Z,52.77
2022-08-11T00:14:43.597Z,52.77
2022-08-11T00:15:43.584Z,52.77
2022-08-11T00:16:43.572Z,52.86
2022-08-11T00:17:43.551Z,52.86
2022-08-11T00:18:43.538Z,52.86
2022-08-11T00:20:15.170Z,52.86
2022-08-11T00:20:44.559Z,52.86
2022-08-11T00:22:04.878Z,52.86
2022-08-11T00:22:44.525Z,52.86
2022-08-11T00:23:43.472Z,52.86
2022-08-11T00:25:14.462Z,52.97
2022-08-11T00:26:14.446Z,52.97
2022-08-11T00:27:16.489Z,52.97
2022-08-11T00:28:14.422Z,52.97
2022-08-11T00:29:14.415Z,52.97
2022-08-11T00:30:14.395Z,52.97
2022-08-11T00:31:14.389Z,53.07
2022-08-11T00:32:14.369Z,53.07
2022-08-11T00:33:14.355Z,52.86
2022-08-11T00:34:14.345Z,52.97
2022-08-11T00:35:52.569Z,52.97
2022-08-11T00:36:15.354Z,52.97
2022-08-11T00:37:14.307Z,52.97
2022-08-11T00:38:14.297Z,52.97
2022-08-11T00:39:14.394Z,52.97
2022-08-11T00:40:14.273Z,53.07
2022-08-11T00:41:14.258Z,53.07
2022-08-11T00:42:14.240Z,53.07
2022-08-11T00:43:20.329Z,53.07
2022-08-11T00:44:15.250Z,53.16
2022-08-11T00:45:14.209Z,53.16
2022-08-11T00:46:14.188Z,53.16
2022-08-11T00:47:14.183Z,53.16
2022-08-11T00:48:14.170Z,53.16
2022-08-11T00:49:14.149Z,53.16
2022-08-11T00:50:14.144Z,53.16
2022-08-11T00:51:14.125Z,53.16
2022-08-11T00:52:14.119Z,53.16
2022-08-11T00:53:14.098Z,53.16
2022-08-11T00:54:14.087Z,53.27
2022-08-11T00:55:14.080Z,53.27
2022-08-11T00:56:14.068Z,53.27
2022-08-11T00:57:37.456Z,53.27
2022-08-11T00:58:15.080Z,53.27
2022-08-11T00:59:34.506Z,53.27
2022-08-11T01:00:15.055Z,53.27
2022-08-11T01:01:14.117Z,53.36
2022-08-11T01:02:13.990Z,53.36
2022-08-11T01:03:13.977Z,53.36
2022-08-11T01:04:13.963Z,53.36
2022-08-11T01:05:13.946Z,53.36
2022-08-11T01:06:13.933Z,53.36
2022-08-11T01:07:13.921Z,53.36
2022-08-11T01:08:13.907Z,53.36
2022-08-11T01:09:17.788Z,53.36
2022-08-11T01:10:15.014Z,53.36
2022-08-11T01:11:13.866Z,53.47
2022-08-11T01:12:13.861Z,53.47
2022-08-11T01:13:13.840Z,53.47
2022-08-11T01:14:13.827Z,53.47
2022-08-11T01:15:13.813Z,53.47
2022-08-11T01:16:13.802Z,53.47
2022-08-11T01:17:13.939Z,53.47
2022-08-11T01:18:13.782Z,53.47
2022-08-11T01:19:13.761Z,53.47
2022-08-11T01:20:45.021Z,53.57
2022-08-11T01:21:13.735Z,53.57
2022-08-11T01:22:13.723Z,53.57
2022-08-11T01:23:15.919Z,53.57
2022-08-11T01:24:13.697Z,53.36
2022-08-11T01:25:13.700Z,53.36
2022-08-11T01:26:13.678Z,53.36
2022-08-11T01:27:19.030Z,53.36
2022-08-11T01:28:14.689Z,53.07
2022-08-11T01:29:13.635Z,53.36
2022-08-11T01:30:13.622Z,53.57
2022-08-11T01:31:13.618Z,53.57
2022-08-11T01:32:13.597Z,53.36
2022-08-11T01:33:13.583Z,53.57
2022-08-11T01:34:13.581Z,53.67
2022-08-11T01:35:13.567Z,53.67
2022-08-11T01:36:13.546Z,53.67
2022-08-11T01:37:13.532Z,53.67
2022-08-11T01:38:13.518Z,53.67
2022-08-11T01:39:13.594Z,53.67
2022-08-11T01:40:13.494Z,53.67
2022-08-11T01:41:13.478Z,53.77
2022-08-11T01:42:13.468Z,53.77
2022-08-11T01:43:13.453Z,53.57
2022-08-11T01:44:13.442Z,53.36
2022-08-11T01:45:13.426Z,53.36
2022-08-11T01:46:13.417Z,53.47
2022-08-11T01:47:13.403Z,53.57
2022-08-11T01:48:13.391Z,53.57
2022-08-11T01:50:06.495Z,53.59
2022-08-11T01:50:14.435Z,53.69
2022-08-11T01:51:15.109Z,53.47
2022-08-11T01:52:13.349Z,53.39
2022-08-11T01:53:13.340Z,53.59
2022-08-11T01:54:13.320Z,53.86
2022-08-11T01:55:13.315Z,53.79
2022-08-11T01:56:13.294Z,53.79
2022-08-11T01:57:13.278Z,53.90
2022-08-11T01:58:13.293Z,53.90
2022-08-11T01:59:13.264Z,53.90
2022-08-11T02:00:13.239Z,53.90
2022-08-11T02:01:13.268Z,53.90
2022-08-11T02:02:16.647Z,53.90
2022-08-11T02:03:14.239Z,53.99
2022-08-11T02:04:13.199Z,53.99
2022-08-11T02:05:13.185Z,53.99
2022-08-11T02:06:13.161Z,53.99
2022-08-11T02:07:13.158Z,53.99
2022-08-11T02:08:13.139Z,53.99
2022-08-11T02:09:13.135Z,53.90
2022-08-11T02:10:13.113Z,53.90
2022-08-11T02:11:13.099Z,53.99
2022-08-11T02:12:13.084Z,53.99
2022-08-11T02:13:13.070Z,53.99
2022-08-11T02:14:13.068Z,53.99
2022-08-11T02:15:13.046Z,53.90
2022-08-11T02:16:13.033Z,53.69
2022-08-11T02:17:13.033Z,53.90
2022-08-11T02:18:13.010Z,53.90
2022-08-11T02:19:12.997Z,53.99
2022-08-11T02:20:12.981Z,54.10
2022-08-11T02:21:12.970Z,54.10
2022-08-11T02:22:12.954Z,54.19
2022-08-11T02:23:12.941Z,54.19
2022-08-11T02:24:12.934Z,54.19
2022-08-11T02:25:12.917Z,54.19
2022-08-11T02:26:12.909Z,54.19
2022-08-11T02:27:12.903Z,54.19
2022-08-11T02:28:12.889Z,54.19
2022-08-11T02:29:12.877Z,54.19
2022-08-11T02:30:12.862Z,54.19
2022-08-11T02:31:15.515Z,54.10
2022-08-11T02:32:28.866Z,54.19
2022-08-11T02:33:13.852Z,54.19
2022-08-11T02:34:12.810Z,54.29
2022-08-11T02:35:12.786Z,54.29
2022-08-11T02:36:12.784Z,54.29
2022-08-11T02:37:12.778Z,54.29
2022-08-11T02:38:12.749Z,54.29
2022-08-11T02:39:12.790Z,54.29
2022-08-11T02:40:12.723Z,54.29
2022-08-11T02:41:12.713Z,54.29
2022-08-11T02:42:35.143Z,54.29
2022-08-11T02:43:13.727Z,54.29
2022-08-11T02:44:12.676Z,54.29
2022-08-11T02:45:12.714Z,54.29
2022-08-11T02:46:18.196Z,54.29
2022-08-11T02:47:13.672Z,54.40
2022-08-11T02:48:12.626Z,54.40
2022-08-11T02:49:12.609Z,54.40
2022-08-11T02:50:12.598Z,54.40
2022-08-11T02:51:12.596Z,54.40
2022-08-11T02:52:12.575Z,54.40
2022-08-11T02:53:12.571Z,54.40
2022-08-11T02:54:12.547Z,54.40
2022-08-11T02:55:12.546Z,54.40
2022-08-11T02:56:13.568Z,54.40
2022-08-11T02:57:12.511Z,54.40
2022-08-11T02:58:12.505Z,54.49
2022-08-11T02:59:12.485Z,54.49
2022-08-11T03:00:12.475Z,54.49
2022-08-11T03:01:12.485Z,54.49
2022-08-11T03:02:12.599Z,54.49
2022-08-11T03:03:12.443Z,54.29
2022-08-11T03:04:12.422Z,54.40
2022-08-11T03:05:12.406Z,54.49
2022-08-11T03:06:12.407Z,54.40
2022-08-11T03:07:28.722Z,54.40
2022-08-11T03:08:13.406Z,54.49
2022-08-11T03:09:12.352Z,54.49
2022-08-11T03:10:12.342Z,54.49
2022-08-11T03:11:12.331Z,54.49
2022-08-11T03:12:12.321Z,54.49
2022-08-11T03:13:12.308Z,54.60
2022-08-11T03:14:12.299Z,54.49
2022-08-11T03:15:12.288Z,54.49
2022-08-11T03:16:12.272Z,54.60
2022-08-11T03:17:12.255Z,54.49
2022-08-11T03:18:12.248Z,54.49
2022-08-11T03:19:12.231Z,54.60
2022-08-11T03:20:12.215Z,54.60
2022-08-11T03:21:12.200Z,54.60
2022-08-11T03:22:12.194Z,54.60
2022-08-11T03:23:20.068Z,54.60
2022-08-11T03:24:13.208Z,54.60
2022-08-11T03:25:13.113Z,54.60
2022-08-11T03:26:12.143Z,54.60
2022-08-11T03:27:12.135Z,54.60
2022-08-11T03:28:12.120Z,54.69
2022-08-11T03:29:43.101Z,54.60
2022-08-11T03:30:43.096Z,54.69
2022-08-11T03:31:43.081Z,54.69
2022-08-11T03:32:43.071Z,54.69
2022-08-11T03:33:43.057Z,54.69
2022-08-11T03:34:43.047Z,54.69
2022-08-11T03:35:43.029Z,54.69
2022-08-11T03:37:15.591Z,54.72
2022-08-11T03:37:45.005Z,54.72
2022-08-11T03:38:42.989Z,54.82
2022-08-11T03:39:56.328Z,54.82
2022-08-11T03:40:44.006Z,54.82
2022-08-11T03:42:03.753Z,54.82
2022-08-11T03:42:43.974Z,54.82
2022-08-11T03:43:45.712Z,54.82
2022-08-11T03:44:43.944Z,54.82
2022-08-11T03:45:42.902Z,54.82
2022-08-11T03:46:42.882Z,54.82
2022-08-11T03:47:55.027Z,54.82
2022-08-11T03:48:43.906Z,54.82
2022-08-11T03:49:42.845Z,54.82
2022-08-11T03:50:42.845Z,54.82
2022-08-11T03:51:44.713Z,54.82
2022-08-11T03:52:43.851Z,54.92
2022-08-11T03:53:42.807Z,54.92
2022-08-11T03:54:42.779Z,54.92
2022-08-11T03:55:42.771Z,54.92
2022-08-11T03:56:42.754Z,54.92
2022-08-11T03:57:42.751Z,54.92
2022-08-11T03:58:46.100Z,54.92
2022-08-11T03:59:42.719Z,54.92
2022-08-11T04:00:42.704Z,54.92
2022-08-11T04:01:42.754Z,54.92
2022-08-11T04:02:42.680Z,55.02
2022-08-11T04:03:42.679Z,55.02
2022-08-11T04:04:45.220Z,55.02
2022-08-11T04:05:43.688Z,55.02
2022-08-11T04:06:42.641Z,55.02
2022-08-11T04:07:42.632Z,55.02
2022-08-11T04:08:42.616Z,55.02
2022-08-11T04:09:42.624Z,55.02
2022-08-11T04:10:42.591Z,55.02
2022-08-11T04:11:42.568Z,55.02
2022-08-11T04:12:47.163Z,55.02
2022-08-11T04:13:42.552Z,55.02
2022-08-11T04:14:42.534Z,55.02
2022-08-11T04:15:42.528Z,55.12
2022-08-11T04:16:42.515Z,55.02
2022-08-11T04:17:42.489Z,55.02
2022-08-11T04:18:42.475Z,55.12
2022-08-11T04:19:42.483Z,55.12
2022-08-11T04:20:42.450Z,55.12
2022-08-11T04:21:42.449Z,55.12
2022-08-11T04:22:42.434Z,55.12
2022-08-11T04:24:35.917Z,55.02
2022-08-11T04:24:48.341Z,55.02
2022-08-11T04:25:51.058Z,55.12
2022-08-11T04:26:44.374Z,55.12
2022-08-11T04:27:42.362Z,55.12
2022-08-11T04:28:47.925Z,55.12
2022-08-11T04:30:03.202Z,55.12
2022-08-11T04:30:43.374Z,55.12
2022-08-11T04:31:50.451Z,55.12
2022-08-11T04:32:43.342Z,55.12
2022-08-11T04:33:42.290Z,55.12
2022-08-11T04:34:42.285Z,55.12
2022-08-11T04:35:44.947Z,55.12
2022-08-11T04:36:43.287Z,55.12
2022-08-11T04:37:42.232Z,55.12
2022-08-11T04:38:42.221Z,55.12
2022-08-11T04:39:42.281Z,55.12
2022-08-11T04:40:42.206Z,55.12
2022-08-11T04:41:42.180Z,55.12
2022-08-11T04:42:42.167Z,55.02
2022-08-11T04:44:02.432Z,55.02
2022-08-11T04:44:43.181Z,55.00
2022-08-11T04:45:42.131Z,55.00
2022-08-11T04:46:42.128Z,54.90
2022-08-11T04:48:03.930Z,54.90
2022-08-11T04:48:43.132Z,54.90
2022-08-11T04:49:42.083Z,54.80
2022-08-11T04:50:42.066Z,54.80
2022-08-11T04:51:43.101Z,54.80
2022-08-11T04:52:42.363Z,54.80
2022-08-11T04:53:42.039Z,54.80
2022-08-11T04:54:42.034Z,54.69
2022-08-11T04:55:42.014Z,54.69
2022-08-11T04:56:41.990Z,54.69
2022-08-11T04:57:41.979Z,54.60
2022-08-11T04:58:41.975Z,54.60
2022-08-11T04:59:41.963Z,54.60
2022-08-11T05:00:41.939Z,54.60
2022-08-11T05:01:42.067Z,54.60
2022-08-11T05:02:41.913Z,54.49
2022-08-11T05:03:41.922Z,54.49
2022-08-11T05:04:41.900Z,54.60
2022-08-11T05:05:41.887Z,54.49
2022-08-11T05:06:42.907Z,54.49
2022-08-11T05:07:41.863Z,54.49
2022-08-11T05:08:41.850Z,54.37
2022-08-11T05:09:41.830Z,54.37
2022-08-11T05:10:43.209Z,54.37
2022-08-11T05:11:41.810Z,54.37
2022-08-11T05:12:41.798Z,54.37
2022-08-11T05:13:41.784Z,54.37
2022-08-11T05:14:41.764Z,54.37
2022-08-11T05:15:42.373Z,54.37
2022-08-11T05:16:41.735Z,54.27
2022-08-11T05:17:41.728Z,54.27
2022-08-11T05:18:41.724Z,54.27
2022-08-11T05:19:41.703Z,54.27
2022-08-11T05:20:41.698Z,54.27
2022-08-11T05:21:44.814Z,54.17
2022-08-11T05:22:41.672Z,54.17
2022-08-11T05:23:41.661Z,54.17
2022-08-11T05:24:41.649Z,54.07
2022-08-11T05:26:45.329Z,54.07
2022-08-11T05:26:48.862Z,54.07
2022-08-11T05:27:42.641Z,54.07
2022-08-11T05:28:41.587Z,54.07
2022-08-11T05:29:41.584Z,54.07
2022-08-11T05:30:41.565Z,54.07
2022-08-11T05:31:41.545Z,54.07
2022-08-11T05:32:41.534Z,53.97
2022-08-11T05:33:41.526Z,53.97
2022-08-11T05:34:41.515Z,53.97
2022-08-11T05:36:01.722Z,53.97
2022-08-11T05:36:42.513Z,53.97
2022-08-11T05:37:41.476Z,53.86
2022-08-11T05:38:41.465Z,53.77
2022-08-11T05:39:41.554Z,53.77
2022-08-11T05:40:41.430Z,53.74
2022-08-11T05:41:42.454Z,53.64
2022-08-11T05:42:41.640Z,53.74
2022-08-11T05:44:19.647Z,53.64
2022-08-11T05:44:42.412Z,53.74
2022-08-11T05:46:03.204Z,53.64
2022-08-11T05:46:42.398Z,53.64
2022-08-11T05:47:41.340Z,53.64
2022-08-11T05:48:41.334Z,53.64
2022-08-11T05:49:41.314Z,53.64
2022-08-11T05:50:41.302Z,53.64
2022-08-11T05:51:54.641Z,53.54
2022-08-11T05:52:42.453Z,53.64
2022-08-11T05:53:46.254Z,53.54
2022-08-11T05:54:41.249Z,53.64
2022-08-11T05:56:01.774Z,53.54
2022-08-11T05:56:42.264Z,53.54
2022-08-11T05:57:50.765Z,53.54
2022-08-11T05:58:43.066Z,53.54
2022-08-11T05:59:41.196Z,53.54
2022-08-11T06:00:41.189Z,53.54
2022-08-11T06:01:41.258Z,53.54
2022-08-11T06:02:41.238Z,53.54
2022-08-11T06:03:41.148Z,53.54
2022-08-11T06:04:42.164Z,53.54
2022-08-11T06:05:43.763Z,53.54
2022-08-11T06:06:45.292Z,53.54
2022-08-11T06:07:49.194Z,53.44
2022-08-11T06:08:42.110Z,53.34
2022-08-11T06:09:41.063Z,53.24
2022-08-11T06:10:41.046Z,53.34
2022-08-11T06:11:44.091Z,53.44
2022-08-11T06:12:41.029Z,53.44
2022-08-11T06:13:41.008Z,53.44
2022-08-11T06:14:41.004Z,53.44
2022-08-11T06:15:40.990Z,53.44
2022-08-11T06:16:40.978Z,53.44
2022-08-11T06:17:40.965Z,53.44
2022-08-11T06:18:40.953Z,53.44
2022-08-11T06:19:40.935Z,53.44
2022-08-11T06:20:40.923Z,53.44
2022-08-11T06:21:40.908Z,53.44
2022-08-11T06:22:40.895Z,53.44
2022-08-11T06:23:40.880Z,53.44
2022-08-11T06:24:40.876Z,53.44
2022-08-11T06:25:40.861Z,53.44
2022-08-11T06:27:08.706Z,53.44
2022-08-11T06:27:41.864Z,53.34
2022-08-11T06:28:40.823Z,53.34
2022-08-11T06:29:47.967Z,53.44
2022-08-11T06:30:41.826Z,53.44
2022-08-11T06:31:40.778Z,53.44
2022-08-11T06:32:40.770Z,53.44
2022-08-11T06:33:40.746Z,53.44
2022-08-11T06:34:40.733Z,53.44
2022-08-11T06:35:40.724Z,53.44
2022-08-11T06:36:40.710Z,53.44
2022-08-11T06:37:40.695Z,53.44
2022-08-11T06:38:40.680Z,53.44
2022-08-11T06:39:40.783Z,53.44
2022-08-11T06:40:40.656Z,53.44
2022-08-11T06:41:40.646Z,53.44
2022-08-11T06:42:40.629Z,53.44
2022-08-11T06:43:42.677Z,53.44
2022-08-11T06:44:41.634Z,53.44
2022-08-11T06:45:40.594Z,53.44
2022-08-11T06:46:40.590Z,53.44
2022-08-11T06:47:40.562Z,53.54
2022-08-11T06:48:40.547Z,53.54
2022-08-11T06:49:40.534Z,53.54
2022-08-11T06:50:40.532Z,53.54
2022-08-11T06:51:41.669Z,53.54
2022-08-11T06:52:40.505Z,53.54
2022-08-11T06:53:40.486Z,53.54
2022-08-11T06:54:40.467Z,53.54
2022-08-11T06:55:56.923Z,53.54
2022-08-11T06:56:41.483Z,53.54
2022-08-11T06:57:40.434Z,53.54
2022-08-11T06:58:40.415Z,53.54
2022-08-11T06:59:40.408Z,53.54
2022-08-11T07:00:40.391Z,53.54
2022-08-11T07:01:40.434Z,53.34
2022-08-11T07:02:40.506Z,53.34
2022-08-11T07:03:40.355Z,53.34
2022-08-11T07:04:40.349Z,53.34
2022-08-11T07:05:40.330Z,53.44
2022-08-11T07:06:50.968Z,53.34
2022-08-11T07:07:41.342Z,53.34
2022-08-11T07:08:40.291Z,53.34
2022-08-11T07:09:40.276Z,53.44
2022-08-11T07:10:40.261Z,53.44
2022-08-11T07:11:40.252Z,53.44
2022-08-11T07:12:40.235Z,53.44
2022-08-11T07:13:45.515Z,53.54
2022-08-11T07:14:40.212Z,53.44
2022-08-11T07:16:10.693Z,53.44
2022-08-11T07:16:40.192Z,53.44
2022-08-11T07:17:40.170Z,53.44
2022-08-11T07:18:40.165Z,53.44
2022-08-11T07:19:40.149Z,53.24
2022-08-11T07:20:40.129Z,53.24
2022-08-11T07:22:01.413Z,53.34
2022-08-11T07:22:41.140Z,53.34
2022-08-11T07:23:40.089Z,53.24
2022-08-11T07:25:01.555Z,53.34
2022-08-11T07:25:41.096Z,53.34
2022-08-11T07:26:40.059Z,53.04
2022-08-11T07:27:40.046Z,53.24
2022-08-11T07:28:40.022Z,53.34
2022-08-11T07:30:07.066Z,53.34
2022-08-11T07:31:07.047Z,53.24
2022-08-11T07:32:07.031Z,53.24
2022-08-11T07:33:07.028Z,53.24
2022-08-11T07:34:12.069Z,53.24
2022-08-11T07:35:08.987Z,53.34
2022-08-11T07:36:06.980Z,53.04
2022-08-11T07:37:07.122Z,53.24
2022-08-11T07:38:08.022Z,53.14
2022-08-11T07:39:07.019Z,53.04
2022-08-11T07:40:06.926Z,53.04
2022-08-11T07:41:06.913Z,53.14
2022-08-11T07:42:08.956Z,53.14
2022-08-11T07:43:06.886Z,53.14
2022-08-11T07:44:06.881Z,52.84
2022-08-11T07:45:06.865Z,53.04
2022-08-11T07:46:06.855Z,52.74
2022-08-11T07:47:06.840Z,52.84
2022-08-11T07:48:06.821Z,52.74
2022-08-11T07:49:06.805Z,52.74
2022-08-11T07:50:06.791Z,52.74
2022-08-11T07:51:06.787Z,52.94
2022-08-11T07:52:06.769Z,53.14
2022-08-11T07:53:06.743Z,53.04
2022-08-11T07:54:16.419Z,52.84
2022-08-11T07:55:08.489Z,52.74
2022-08-11T07:56:06.707Z,52.94
2022-08-11T07:57:09.293Z,53.14
2022-08-11T07:58:15.613Z,53.14
2022-08-11T07:59:07.702Z,53.04
2022-08-11T08:00:06.648Z,53.04
2022-08-11T08:01:10.342Z,53.04
2022-08-11T08:02:06.775Z,52.84
2022-08-11T08:03:06.611Z,52.74
2022-08-11T08:04:06.607Z,52.84
2022-08-11T08:05:06.590Z,52.84
2022-08-11T08:06:06.583Z,52.84
2022-08-11T08:07:07.602Z,52.84
2022-08-11T08:08:06.545Z,52.94
2022-08-11T08:09:06.535Z,52.84
2022-08-11T08:10:06.523Z,52.74
2022-08-11T08:11:06.515Z,52.44
2022-08-11T08:12:06.507Z,52.34
2022-08-11T08:13:06.485Z,52.23
2022-08-11T08:14:06.480Z,52.34
2022-08-11T08:15:06.468Z,52.23
2022-08-11T08:16:06.441Z,52.23
2022-08-11T08:17:06.438Z,52.34
2022-08-11T08:18:09.015Z,52.54
2022-08-11T08:19:07.435Z,52.44
2022-08-11T08:20:06.387Z,52.34
2022-08-11T08:21:06.381Z,52.23
2022-08-11T08:22:38.487Z,51.64
2022-08-11T08:23:07.381Z,51.73
2022-08-11T08:24:06.345Z,51.73
2022-08-11T08:25:06.329Z,51.64
2022-08-11T08:26:16.844Z,51.64
2022-08-11T08:27:07.334Z,51.53
2022-08-11T08:28:06.897Z,51.44
2022-08-11T08:29:06.269Z,51.34
2022-08-11T08:30:06.264Z,51.21
2022-08-11T08:31:06.240Z,51.01
2022-08-11T08:32:06.238Z,51.11
2022-08-11T08:33:06.223Z,51.31
2022-08-11T08:34:06.211Z,51.41
2022-08-11T08:35:06.191Z,51.21
2022-08-11T08:36:06.174Z,51.11
2022-08-11T08:37:16.075Z,51.21
2022-08-11T08:38:07.186Z,51.21
2022-08-11T08:39:06.146Z,51.01
2022-08-11T08:40:06.122Z,51.31
2022-08-11T08:41:06.114Z,51.31
2022-08-11T08:42:06.097Z,51.31
2022-08-11T08:43:06.094Z,51.41
2022-08-11T08:44:37.942Z,51.41
2022-08-11T08:45:10.121Z,51.41
2022-08-11T08:46:06.046Z,51.51
2022-08-11T08:47:06.183Z,51.71
2022-08-11T08:48:06.036Z,51.51
2022-08-11T08:49:06.010Z,51.61
2022-08-11T08:50:05.994Z,51.51
2022-08-11T08:51:08.023Z,51.41
2022-08-11T08:52:26.219Z,51.51
2022-08-11T08:53:06.988Z,51.41
2022-08-11T08:54:05.942Z,51.31
2022-08-11T08:55:05.923Z,51.21
2022-08-11T08:56:05.914Z,51.21
2022-08-11T08:57:05.901Z,51.21
2022-08-11T08:58:05.887Z,51.11
2022-08-11T08:59:05.869Z,51.11
2022-08-11T09:00:05.871Z,51.01
2022-08-11T09:01:05.897Z,50.81
2022-08-11T09:02:05.834Z,50.71
2022-08-11T09:03:36.085Z,50.31
2022-08-11T09:04:11.424Z,49.58
2022-08-11T09:05:05.798Z,50.18
2022-08-11T09:06:05.779Z,49.89
2022-08-11T09:07:05.762Z,49.68
2022-08-11T09:08:05.754Z,49.78
2022-08-11T09:09:05.747Z,48.58
2022-08-11T09:10:05.725Z,48.36
2022-08-11T09:11:09.419Z,47.96
2022-08-11T09:12:06.739Z,47.96
2022-08-11T09:13:05.682Z,47.63
2022-08-11T09:14:08.382Z,47.93
2022-08-11T09:15:07.666Z,49.66
2022-08-11T09:16:05.649Z,49.08
2022-08-11T09:17:05.628Z,49.48
2022-08-11T09:18:05.617Z,49.58
2022-08-11T09:19:05.604Z,49.58
2022-08-11T09:20:05.593Z,49.58
2022-08-11T09:21:05.578Z,49.08
2022-08-11T09:22:05.569Z,48.88
2022-08-11T09:24:11.286Z,48.28
2022-08-11T09:25:06.559Z,47.46
2022-08-11T09:26:05.511Z,46.66
2022-08-11T09:27:05.505Z,46.75
2022-08-11T09:28:05.484Z,46.45
2022-08-11T09:29:05.477Z,46.66
2022-08-11T09:30:05.454Z,46.86
2022-08-11T09:31:05.443Z,46.55
2022-08-11T09:32:05.426Z,46.55
2022-08-11T09:33:05.414Z,46.05
2022-08-11T09:34:05.651Z,45.95
2022-08-11T09:35:05.390Z,45.33
2022-08-11T09:36:05.375Z,45.33
2022-08-11T09:37:05.371Z,45.03
2022-08-11T09:38:05.350Z,44.93
2022-08-11T09:39:05.344Z,45.13
2022-08-11T09:40:05.324Z,45.13
2022-08-11T09:41:05.307Z,45.63
2022-08-11T09:42:05.298Z,45.13
2022-08-11T09:43:05.279Z,45.33
2022-08-11T09:44:05.277Z,45.03
2022-08-11T09:45:05.264Z,44.83
2022-08-11T09:46:05.250Z,44.83
2022-08-11T09:47:05.229Z,44.73
2022-08-11T09:48:07.472Z,44.73
2022-08-11T09:49:05.208Z,44.63
2022-08-11T09:50:05.188Z,44.63
2022-08-11T09:51:05.184Z,44.33
2022-08-11T09:52:05.709Z,44.03
2022-08-11T09:53:36.379Z,44.13
2022-08-11T09:54:06.180Z,43.93
2022-08-11T09:55:05.120Z,44.03
2022-08-11T09:56:05.108Z,43.83
2022-08-11T09:57:05.539Z,43.73
2022-08-11T09:58:05.081Z,43.93
2022-08-11T09:59:05.069Z,43.93
2022-08-11T10:00:12.508Z,43.93
2022-08-11T10:01:06.134Z,44.53
2022-08-11T10:02:05.025Z,44.23
2022-08-11T10:03:05.014Z,44.53
2022-08-11T10:04:11.002Z,44.43
2022-08-11T10:05:04.993Z,44.33
2022-08-11T10:06:08.080Z,44.23
2022-08-11T10:07:07.052Z,44.13
2022-08-11T10:08:04.953Z,44.13
2022-08-11T10:09:04.944Z,44.11
2022-08-11T10:10:04.935Z,43.81
2022-08-11T10:11:04.930Z,43.51
2022-08-11T10:12:04.895Z,43.61
2022-08-11T10:14:31.121Z,43.51
2022-08-11T10:14:33.368Z,43.41
2022-08-11T10:15:05.897Z,43.51
2022-08-11T10:16:15.551Z,43.51
2022-08-11T10:17:05.855Z,43.21
2022-08-11T10:18:04.821Z,43.31
2022-08-11T10:19:04.797Z,43.41
2022-08-11T10:20:06.135Z,43.71
2022-08-11T10:21:04.768Z,43.93
2022-08-11T10:22:04.774Z,44.03
2022-08-11T10:23:04.742Z,44.53
2022-08-11T10:24:05.657Z,44.63
2022-08-11T10:25:04.719Z,44.73
2022-08-11T10:26:04.713Z,44.73
2022-08-11T10:27:04.688Z,44.73
2022-08-11T10:28:28.573Z,44.23
2022-08-11T10:29:13.258Z,44.01
2022-08-11T10:30:05.688Z,43.81
2022-08-11T10:31:04.646Z,43.81
2022-08-11T10:32:04.686Z,43.61
2022-08-11T10:33:04.606Z,43.31
2022-08-11T10:34:04.594Z,42.99
2022-08-11T10:35:04.588Z,42.99
2022-08-11T10:36:04.568Z,42.99
2022-08-11T10:37:05.591Z,42.99
2022-08-11T10:38:35.547Z,42.81
2022-08-11T10:39:35.608Z,42.71
2022-08-11T10:40:35.521Z,42.49
2022-08-11T10:42:06.655Z,42.69
2022-08-11T10:43:03.571Z,42.71
2022-08-11T10:44:04.038Z,42.79
2022-08-11T10:45:02.509Z,42.69
2022-08-11T10:46:04.545Z,42.69
2022-08-11T10:47:02.481Z,42.69
2022-08-11T10:48:02.477Z,42.69
2022-08-11T10:49:02.461Z,42.59
2022-08-11T10:50:02.439Z,42.59
2022-08-11T10:51:02.426Z,42.49
2022-08-11T10:52:02.450Z,42.49
2022-08-11T10:53:02.407Z,42.39
2022-08-11T10:54:02.383Z,42.49
2022-08-11T10:55:02.374Z,41.99
2022-08-11T10:56:02.410Z,41.99
2022-08-11T10:57:02.354Z,41.89
2022-08-11T10:58:04.619Z,41.89
2022-08-11T10:59:04.092Z,41.99
2022-08-11T11:00:02.314Z,42.19
2022-08-11T11:01:02.396Z,42.19
2022-08-11T11:02:02.287Z,42.19
2022-08-11T11:03:22.075Z,41.99
2022-08-11T11:04:03.297Z,41.99
2022-08-11T11:05:02.238Z,41.89
2022-08-11T11:06:28.666Z,42.19
2022-08-11T11:07:03.263Z,42.19
2022-08-11T11:08:02.197Z,42.19
2022-08-11T11:09:04.611Z,42.29
2022-08-11T11:10:04.169Z,42.29
2022-08-11T11:11:02.368Z,42.19
2022-08-11T11:12:02.144Z,41.99
2022-08-11T11:13:02.140Z,41.89
2022-08-11T11:14:02.119Z,41.87
2022-08-11T11:15:02.111Z,41.57
2022-08-11T11:16:02.091Z,41.89
2022-08-11T11:17:02.085Z,42.17
2022-08-11T11:18:02.086Z,42.47
2022-08-11T11:19:02.049Z,42.59
2022-08-11T11:20:02.035Z,42.49
2022-08-11T11:21:02.026Z,41.69
2022-08-11T11:22:02.014Z,41.69
2022-08-11T11:23:01.995Z,41.29
2022-08-11T11:24:01.983Z,43.09
2022-08-11T11:25:01.969Z,41.99
2022-08-11T11:26:01.957Z,41.79
2022-08-11T11:27:01.948Z,41.47
2022-08-11T11:28:01.929Z,41.17
2022-08-11T11:29:01.922Z,41.27
2022-08-11T11:30:01.903Z,41.27
2022-08-11T11:31:01.898Z,41.67
2022-08-11T11:32:01.879Z,41.87
2022-08-11T11:33:01.862Z,42.07
2022-08-11T11:34:12.129Z,41.99
2022-08-11T11:35:02.885Z,42.49
2022-08-11T11:36:01.833Z,42.59
2022-08-11T11:37:01.810Z,42.29
2022-08-11T11:38:04.935Z,42.29
2022-08-11T11:39:01.790Z,42.49
2022-08-11T11:40:01.776Z,42.49
2022-08-11T11:41:01.758Z,42.59
2022-08-11T11:42:01.745Z,42.19
2022-08-11T11:43:01.772Z,42.37
2022-08-11T11:44:28.773Z,42.77
2022-08-11T11:45:28.752Z,43.09
2022-08-11T11:46:30.359Z,42.59
2022-08-11T11:47:28.737Z,42.39
2022-08-11T11:48:28.708Z,42.27
2022-08-11T11:49:28.708Z,42.37
2022-08-11T11:50:31.611Z,42.47
2022-08-11T11:51:28.680Z,42.89
2022-08-11T11:52:28.658Z,42.69
2022-08-11T11:53:28.642Z,42.39
2022-08-11T11:54:28.627Z,42.79
2022-08-11T11:55:28.618Z,42.49
2022-08-11T11:56:28.605Z,42.59
2022-08-11T11:57:28.588Z,42.39
2022-08-11T11:58:28.585Z,42.37
2022-08-11T11:59:28.565Z,42.07
2022-08-11T12:00:33.418Z,41.87
2022-08-11T12:01:28.534Z,41.75
2022-08-11T12:02:28.527Z,41.65
2022-08-11T12:03:28.561Z,41.85
2022-08-11T12:04:29.097Z,41.65
2022-08-11T12:05:28.482Z,41.85
2022-08-11T12:06:28.472Z,41.55
2022-08-11T12:07:28.829Z,41.75
2022-08-11T12:08:57.545Z,41.87
2022-08-11T12:09:57.531Z,41.87
2022-08-11T12:10:55.471Z,41.75
2022-08-11T12:11:55.450Z,41.45
2022-08-11T12:12:57.491Z,41.35
2022-08-11T12:13:55.424Z,41.45
2022-08-11T12:14:55.420Z,41.55
2022-08-11T12:16:06.503Z,41.55
2022-08-11T12:16:56.423Z,41.65
2022-08-11T12:17:55.374Z,41.75
2022-08-11T12:18:55.355Z,41.67
2022-08-11T12:19:55.353Z,41.67
2022-08-11T12:20:55.341Z,41.97
2022-08-11T12:22:00.670Z,42.37
2022-08-11T12:22:57.301Z,42.57
2022-08-11T12:23:55.299Z,42.07
2022-08-11T12:24:55.274Z,42.07
2022-08-11T12:26:16.328Z,41.97
2022-08-11T12:27:15.197Z,42.07
2022-08-11T12:27:56.282Z,41.95
2022-08-11T12:28:55.232Z,41.77
2022-08-11T12:29:55.807Z,41.67
2022-08-11T12:30:57.859Z,41.67
2022-08-11T12:31:55.192Z,41.87
2022-08-11T12:32:55.169Z,42.17
2022-08-11T12:33:55.157Z,41.97
2022-08-11T12:34:55.151Z,41.47
2022-08-11T12:36:00.722Z,41.35
2022-08-11T12:36:56.149Z,41.05
2022-08-11T12:38:01.232Z,41.35
2022-08-11T12:38:56.137Z,41.05
2022-08-11T12:40:15.978Z,41.65
2022-08-11T12:41:56.196Z,41.85
2022-08-11T12:42:55.603Z,41.97
2022-08-11T12:43:56.559Z,42.17
2022-08-11T12:44:55.218Z,41.47
2022-08-11T12:45:57.056Z,41.27
2022-08-11T12:46:54.981Z,41.57
2022-08-11T12:48:12.251Z,41.57
2022-08-11T12:49:00.374Z,41.77
2022-08-11T12:49:54.948Z,41.67
2022-08-11T12:50:54.929Z,42.05
2022-08-11T12:52:12.897Z,41.75
2022-08-11T12:52:55.950Z,41.45
2022-08-11T12:53:54.902Z,41.55
2022-08-11T12:54:54.875Z,41.45
2022-08-11T12:56:03.929Z,41.23
2022-08-11T12:56:55.881Z,41.13
2022-08-11T12:57:54.873Z,41.55